Time;durP1;ratioP1;P1;durP2;ratioP2;P2;SDS_P1;SDS_P2;PMS_P1;PMS_P2;Temp;Humidity;BMP_temperature;BMP_pressure;BME280_temperature;BME280_humidity;BME280_pressure;Samples;Min_cycle;Max_cycle;Signal;HPM_P1;HPM_P2
2021/04/13 03:46:14;;;;;;;13.85;10.35;;;;;;;13.38;66.32;94515.39;826621;71;32825;-77
2021/04/13 04:01:23;;;;;;;13.70;12.00;;;;;;;13.26;67.57;94517.78;833493;71;33204;-77
2021/04/13 04:16:20;;;;;;;13.62;10.82;;;;;;;13.23;69.73;94527.08;826636;71;32720;-74
2021/04/13 04:31:36;;;;;;;15.00;10.53;;;;;;;13.28;71.24;94535.39;827808;71;30278;-74
2021/04/13 04:46:31;;;;;;;16.12;11.88;;;;;;;13.50;71.93;94530.63;826844;71;33189;-76
2021/04/13 05:01:15;;;;;;;14.18;11.45;;;;;;;13.55;71.68;94522.60;815790;70;33362;-74
2021/04/13 05:16:10;;;;;;;14.05;12.55;;;;;;;13.45;71.53;94502.56;833112;71;30306;-76
2021/04/13 05:31:29;;;;;;;17.00;13.60;;;;;;;13.61;73.01;94494.46;821836;71;32751;-77
2021/04/13 05:46:09;;;;;;;17.48;12.53;;;;;;;13.21;72.10;94499.71;827544;71;29782;-75
2021/04/13 06:01:31;;;;;;;15.30;12.98;;;;;;;12.73;73.30;94475.92;832578;71;33713;-75
2021/04/13 06:16:21;;;;;;;18.50;14.68;;;;;;;12.35;74.29;94467.11;827141;71;33175;-76
2021/04/13 06:31:11;;;;;;;16.73;14.25;;;;;;;11.97;75.61;94439.81;828928;71;30283;-76
2021/04/13 06:46:36;;;;;;;19.10;13.65;;;;;;;12.30;74.85;94452.20;828711;71;32735;-77
2021/04/13 07:01:33;;;;;;;12.63;11.33;;;;;;;12.76;72.63;94430.03;827031;71;33013;-75
2021/04/13 07:16:22;;;;;;;14.78;11.95;;;;;;;13.03;71.57;94417.74;833406;71;30764;-74
2021/04/13 07:31:15;;;;;;;15.32;11.57;;;;;;;13.62;70.50;94400.31;825582;71;30320;-74
2021/04/13 07:46:43;;;;;;;18.57;12.95;;;;;;;14.19;68.43;94396.23;821240;71;30368;-75
2021/04/13 08:01:17;;;;;;;13.35;10.00;;;;;;;15.42;64.75;94380.17;833180;71;32699;-78
2021/04/13 08:16:29;;;;;;;14.43;9.05;;;;;;;16.90;59.50;94383.99;827381;71;31159;-75
2021/04/13 08:46:16;;;;;;;13.25;9.03;;;;;;;17.34;54.72;94368.31;827596;71;30330;-75
2021/04/13 09:01:49;;;;;;;9.78;8.60;;;;;;;17.27;55.12;94362.22;833360;70;33573;-75
2021/04/13 09:16:25;;;;;;;10.63;6.92;;;;;;;17.14;55.33;94356.16;827450;71;30222;-74
2021/04/13 09:31:13;;;;;;;9.75;7.10;;;;;;;17.06;54.54;94346.44;827258;71;32075;-76
2021/04/13 09:46:18;;;;;;;15.53;8.53;;;;;;;17.08;56.10;94336.84;832778;71;30278;-76
2021/04/13 10:01:42;;;;;;;12.50;9.95;;;;;;;16.84;59.27;94337.61;833784;71;33508;-76
2021/04/13 10:16:26;;;;;;;14.47;10.88;;;;;;;16.10;62.11;94329.48;827459;71;29703;-74
2021/04/13 10:31:44;;;;;;;16.70;9.20;;;;;;;15.42;65.57;94315.95;828064;71;29707;-77
2021/04/13 10:46:43;;;;;;;17.67;10.15;;;;;;;15.12;68.18;94326.55;827254;71;32060;-75
2021/04/13 11:01:31;;;;;;;9.08;7.10;;;;;;;14.88;67.06;94310.52;827498;71;31054;-76
2021/04/13 11:16:23;;;;;;;16.85;10.90;;;;;;;14.00;71.40;94281.77;827679;71;32070;-77
2021/04/13 11:31:37;;;;;;;16.17;12.40;;;;;;;13.73;76.39;94283.47;834709;71;32834;-76
2021/04/13 11:46:17;;;;;;;20.68;15.40;;;;;;;13.56;80.32;94292.92;826425;71;33030;-75
2021/04/13 12:01:18;;;;;;;22.37;12.80;;;;;;;13.35;80.07;94262.47;827222;71;30001;-76
2021/04/13 12:16:11;;;;;;;13.28;10.50;;;;;;;13.27;77.78;94233.46;822384;71;29795;-77
2021/04/13 12:31:23;;;;;;;15.00;10.32;;;;;;;13.36;76.57;94198.16;833550;71;30862;-75
2021/04/13 12:46:22;;;;;;;9.28;7.35;;;;;;;13.62;73.54;94198.11;828512;71;31107;-75
2021/04/13 13:01:19;;;;;;;8.83;6.20;;;;;;;13.88;67.42;94173.51;828335;71;30218;-74
2021/04/13 13:16:32;;;;;;;8.10;6.10;;;;;;;13.89;67.46;94168.48;833643;71;32783;-77
2021/04/13 13:31:27;;;;;;;7.72;6.28;;;;;;;13.29;68.71;94160.95;828573;71;33017;-77
2021/04/13 13:46:20;;;;;;;8.18;6.08;;;;;;;13.00;71.13;94172.11;835270;71;31429;-75
2021/04/13 14:01:42;;;;;;;9.45;6.70;;;;;;;13.30;73.13;94187.54;833586;71;32708;-76
2021/04/13 14:16:44;;;;;;;8.00;6.60;;;;;;;13.73;74.41;94172.72;834019;71;30209;-76
2021/04/13 14:31:17;;;;;;;11.12;6.97;;;;;;;13.94;73.37;94165.66;828994;71;29731;-76
2021/04/13 14:46:19;;;;;;;12.47;8.28;;;;;;;13.74;72.72;94154.48;829073;71;30316;-76
2021/04/13 15:01:41;;;;;;;15.05;9.93;;;;;;;13.80;75.47;94153.98;834286;71;30376;-77
2021/04/13 15:16:12;;;;;;;11.55;9.00;;;;;;;13.79;73.67;94158.28;834778;71;29658;-76
2021/04/13 15:31:09;;;;;;;12.78;9.90;;;;;;;13.88;73.89;94167.47;827335;71;30342;-74
2021/04/13 15:46:18;;;;;;;9.05;7.53;;;;;;;13.74;74.76;94179.53;827763;71;30769;-74
2021/04/13 16:01:10;;;;;;;7.85;6.90;;;;;;;13.47;77.21;94186.73;828641;71;31158;-77
2021/04/13 16:16:10;;;;;;;9.68;7.33;;;;;;;13.21;78.32;94186.73;828223;71;30836;-77
2021/04/13 16:31:28;;;;;;;11.33;9.00;;;;;;;12.75;79.61;94165.73;827019;71;33912;-81
2021/04/13 16:46:33;;;;;;;15.55;11.83;;;;;;;12.47;80.96;94154.19;834127;71;32849;-80
2021/04/13 17:01:21;;;;;;;16.52;12.05;;;;;;;12.08;82.09;94155.02;830274;70;32725;-80
2021/04/13 17:16:19;;;;;;;22.50;17.12;;;;;;;11.89;83.25;94152.64;827249;71;32701;-82
2021/04/13 17:31:59;;;;;;;;;;;;;;;;;;;;;
2021/04/13 17:47:00;;;;;;;18.55;15.13;;;;;;;11.92;85.15;94163.33;828000;71;31084;-80
2021/04/13 18:01:16;;;;;;;20.62;16.73;;;;;;;11.53;86.70;94140.39;828236;71;33205;-77
2021/04/13 18:16:14;;;;;;;19.95;15.30;;;;;;;11.57;85.61;94150.53;825172;71;29776;-76
2021/04/13 18:46:26;;;;;;;27.73;20.62;;;;;;;11.51;87.35;94170.13;833241;71;32717;-76
2021/04/13 19:01:21;;;;;;;8.98;7.40;;;;;;;11.59;84.50;94179.91;827166;71;33062;-78
2021/04/13 19:16:15;;;;;;;7.65;6.87;;;;;;;11.31;82.73;94154.33;826993;71;33249;-78
2021/04/13 19:31:35;;;;;;;9.90;7.80;;;;;;;11.36;83.60;94143.16;826792;71;33226;-78
2021/04/13 19:46:21;;;;;;;6.33;3.55;;;;;;;11.35;78.84;94124.52;833441;71;33126;-78
2021/04/13 20:01:18;;;;;;;10.43;8.50;;;;;;;11.42;81.53;94118.31;827146;71;33495;-79
2021/04/13 20:16:34;;;;;;;12.60;9.05;;;;;;;11.52;81.57;94130.97;827871;71;30284;-78
2021/04/13 20:31:18;;;;;;;7.80;5.33;;;;;;;11.46;78.74;94101.42;827431;71;30744;-77
2021/04/13 20:46:10;;;;;;;12.88;10.10;;;;;;;11.56;81.18;94103.02;820549;71;29826;-79
2021/04/13 21:01:58;;;;;;;18.73;15.88;;;;;;;11.61;83.11;94098.92;828685;71;29869;-79
2021/04/13 21:16:19;;;;;;;10.03;8.33;;;;;;;11.41;82.02;94097.59;826856;71;33478;-79
2021/04/13 21:31:11;;;;;;;10.53;8.98;;;;;;;11.29;82.60;94082.39;827763;71;30330;-79
2021/04/13 21:46:26;;;;;;;31.82;22.58;;;;;;;11.24;84.02;94115.36;828971;71;32874;-80
2021/04/13 22:01:16;;;;;;;51.45;30.92;;;;;;;11.21;86.09;94141.70;827758;71;31975;-79
2021/04/13 22:16:20;;;;;;;18.23;13.45;;;;;;;11.28;84.40;94137.87;826841;71;32699;-78
2021/04/13 22:31:19;;;;;;;2.90;2.70;;;;;;;;;;827812;71;32466;-79
2021/04/13 22:46:10;;;;;;;5.17;2.60;;;;;;;10.60;81.22;94046.81;827842;71;30276;-80
2021/04/13 23:01:15;;;;;;;3.40;3.10;;;;;;;10.62;80.04;123554.15;827189;71;32702;-78
2021/04/13 23:16:10;;;;;;;7.75;6.50;;;;;;;10.35;81.84;94021.16;835739;71;30478;-78
2021/04/13 23:31:26;;;;;;;5.60;5.00;;;;;;;10.65;81.46;94041.97;833432;71;33315;-78
